Terminal Aerodrome Forecast
Issued by NWS Cleveland, OH

Home | Current Version | Previous Version | Text Only | Print | Product List | Glossary On
Versions: 1 2 3 4 5 6 7 8 9 10 11 12 13 14 15 16 17 18 19 20
000
FTUS41 KCLE 281100
TAFYNG
TAF
KYNG 281139Z 2812/2912 27004KT P6SM VCSH BKN005 OVC010
      TEMPO 2812/2815 32010KT 4SM SHRA BR OVC012
     FM281500 31014KT P6SM VCSH BKN015 OVC025
     FM281800 32015G22KT P6SM BKN028
     FM290000 31006KT P6SM BKN030
     FM290800 27005KT P6SM SCT035=

USA.gov is the U.S. government's official web portal to all federal, state and local government web resources and services.